Time;durP1;ratioP1;P1;durP2;ratioP2;P2;SDS_P1;SDS_P2;PMS_P1;PMS_P2;Temp;Humidity;BMP_temperature;BMP_pressure;BME280_temperature;BME280_humidity;BME280_pressure;Samples;Min_cycle;Max_cycle;Signal;HPM_P1;HPM_P2
2021/07/06 00:00:00;;;;;;;11.10;6.55;;;;;;;17.80;68.75;95864.66;5136110;27;20023;-64
2021/07/06 00:02:26;;;;;;;8.65;6.95;;;;;;;17.80;68.37;95861.16;5136010;27;20486;-61
2021/07/06 00:04:59;;;;;;;7.63;6.55;;;;;;;17.81;68.62;95855.75;5135746;27;20043;-63
2021/07/06 00:07:25;;;;;;;8.35;6.50;;;;;;;17.80;68.50;95867.28;5136043;27;20023;-65
2021/07/06 00:09:51;;;;;;;8.70;6.97;;;;;;;17.80;68.36;95862.00;5135849;27;20088;-65
2021/07/06 00:12:17;;;;;;;9.43;6.70;;;;;;;17.83;68.49;95860.91;5135751;27;20052;-64
2021/07/06 00:14:43;;;;;;;12.95;7.32;;;;;;;17.85;68.77;95861.63;5135752;27;20038;-64
2021/07/06 00:17:09;;;;;;;9.70;6.78;;;;;;;17.80;68.83;95858.50;5135694;27;20023;-62
2021/07/06 00:19:35;;;;;;;8.68;6.57;;;;;;;17.79;69.06;95865.59;5135729;27;20126;-64
2021/07/06 00:22:01;;;;;;;9.63;6.88;;;;;;;17.79;68.93;95855.00;5135744;27;20019;-62
2021/07/06 00:24:26;;;;;;;9.02;7.40;;;;;;;17.76;68.61;95855.25;5135561;27;20110;-62
2021/07/06 00:26:52;;;;;;;8.75;6.57;;;;;;;17.76;68.94;95857.91;5135552;27;20079;-64
2021/07/06 00:29:18;;;;;;;10.68;7.60;;;;;;;17.75;69.30;95853.56;5135436;27;20114;-62
2021/07/06 00:31:44;;;;;;;11.50;6.57;;;;;;;17.74;69.22;95861.63;5135519;27;20052;-62
2021/07/06 00:34:10;;;;;;;9.68;7.35;;;;;;;17.66;69.07;95859.56;5135359;27;20023;-63
2021/07/06 00:36:36;;;;;;;8.43;7.15;;;;;;;17.67;69.36;95858.63;5135511;27;20409;-63
2021/07/06 00:39:01;;;;;;;8.98;7.40;;;;;;;17.63;69.11;95857.16;5135329;27;20380;-63
2021/07/06 00:41:27;;;;;;;10.20;7.50;;;;;;;17.59;69.43;95859.22;5135319;27;20023;-61
2021/07/06 00:43:53;;;;;;;8.55;7.38;;;;;;;17.57;69.38;95862.97;5135240;27;20050;-64
2021/07/06 00:46:19;;;;;;;9.68;6.75;;;;;;;17.54;69.55;95864.88;5135250;27;20468;-63
2021/07/06 00:48:44;;;;;;;8.68;7.00;;;;;;;17.45;69.57;95865.56;5135290;27;20027;-61
2021/07/06 00:51:10;;;;;;;8.30;7.20;;;;;;;17.41;69.58;95859.69;5135086;27;20371;-61
2021/07/06 00:53:36;;;;;;;8.25;6.35;;;;;;;17.42;69.62;95866.66;5134979;27;20111;-63
2021/07/06 00:56:02;;;;;;;10.23;7.38;;;;;;;17.39;69.58;95860.75;5134973;27;20026;-64
2021/07/06 00:58:28;;;;;;;13.02;7.18;;;;;;;17.38;69.66;95864.34;5135160;27;20030;-64
2021/07/06 01:00:54;;;;;;;9.90;7.55;;;;;;;17.37;69.58;95863.50;5134919;27;20019;-63
2021/07/06 01:03:19;;;;;;;11.10;7.38;;;;;;;17.33;69.45;95867.34;5134568;27;20043;-62
2021/07/06 01:05:45;;;;;;;10.55;7.38;;;;;;;17.26;69.86;95876.69;5134892;27;20105;-61
2021/07/06 01:08:11;;;;;;;9.52;6.70;;;;;;;17.17;70.08;95865.03;5134785;27;20057;-63
2021/07/06 01:10:37;;;;;;;8.98;6.72;;;;;;;17.11;69.96;95863.69;5134792;27;20023;-62
2021/07/06 01:13:04;;;;;;;12.38;7.63;;;;;;;17.03;70.30;95869.53;5134699;27;20023;-60
2021/07/06 01:15:32;;;;;;;15.48;7.68;;;;;;;17.01;70.47;95863.50;5134732;27;20086;-63
2021/07/06 01:18:03;;;;;;;9.68;7.53;;;;;;;16.96;70.56;95863.00;5134555;27;20023;-64
2021/07/06 01:20:30;;;;;;;9.10;7.35;;;;;;;16.93;70.62;95866.75;5134577;27;20621;-63
2021/07/06 01:22:56;;;;;;;9.13;7.63;;;;;;;16.91;70.90;95863.34;5134169;27;20046;-64
2021/07/06 01:25:22;;;;;;;10.77;7.60;;;;;;;16.86;70.99;95868.13;5134521;27;20038;-63
2021/07/06 01:27:47;;;;;;;10.18;8.43;;;;;;;16.90;71.06;95866.09;5134489;27;20479;-64
2021/07/06 01:30:16;;;;;;;12.25;7.25;;;;;;;16.87;71.45;95869.81;5134369;27;20539;-65
2021/07/06 01:32:43;;;;;;;8.88;7.97;;;;;;;16.90;71.16;95866.09;5134403;27;20019;-61
2021/07/06 01:35:11;;;;;;;9.45;8.45;;;;;;;16.89;70.98;95872.34;5134338;27;20052;-62
2021/07/06 01:37:52;;;;;;;10.82;8.02;;;;;;;16.89;70.86;95862.63;5134237;27;20030;-64
2021/07/06 01:40:19;;;;;;;8.57;6.88;;;;;;;16.84;71.21;95862.13;5134280;27;20034;-64
2021/07/06 01:42:46;;;;;;;9.15;8.25;;;;;;;16.84;71.51;95864.78;5134140;27;20063;-62
2021/07/06 01:45:20;;;;;;;10.35;7.93;;;;;;;16.75;71.99;95865.44;5134129;27;20031;-64
2021/07/06 01:47:48;;;;;;;9.68;8.55;;;;;;;16.71;72.00;95861.34;5134201;27;20026;-64
2021/07/06 01:50:17;;;;;;;12.15;7.35;;;;;;;16.73;71.61;95869.97;5134282;27;20062;-65
2021/07/06 01:52:44;;;;;;;9.00;7.93;;;;;;;16.67;71.54;95863.38;5133949;27;20023;-64
2021/07/06 01:55:12;;;;;;;8.35;7.35;;;;;;;16.75;71.62;95868.94;5134081;28;20019;-63
2021/07/06 01:57:39;;;;;;;9.80;7.78;;;;;;;16.84;71.69;95867.41;5133973;28;20050;-60
2021/07/06 02:00:10;;;;;;;8.07;7.28;;;;;;;16.89;71.55;95872.34;5134026;28;20019;-62
2021/07/06 02:02:36;;;;;;;10.02;7.70;;;;;;;16.87;71.36;95872.47;5134097;28;20529;-61
2021/07/06 02:05:08;;;;;;;8.70;7.80;;;;;;;16.82;71.41;95869.31;5133771;28;20044;-64
2021/07/06 02:07:34;;;;;;;9.40;7.93;;;;;;;16.81;71.89;95865.00;5134043;28;20091;-64
2021/07/06 02:10:00;;;;;;;8.38;7.47;;;;;;;16.84;71.63;95870.06;5133922;28;20022;-62
2021/07/06 02:12:25;;;;;;;8.70;7.38;;;;;;;16.86;71.97;95875.22;5133989;28;20377;-64
2021/07/06 02:14:51;;;;;;;8.45;6.90;;;;;;;16.85;71.84;95876.16;5133950;28;20389;-60
2021/07/06 02:17:17;;;;;;;8.70;7.85;;;;;;;16.85;71.84;95871.72;5133793;28;20024;-64
2021/07/06 02:19:42;;;;;;;13.52;8.13;;;;;;;16.84;71.88;95871.84;5133917;28;20417;-61
2021/07/06 02:22:08;;;;;;;8.43;7.63;;;;;;;16.84;71.90;95872.69;5133869;28;20465;-65
2021/07/06 02:24:33;;;;;;;10.00;7.13;;;;;;;16.87;71.80;95874.25;5133872;28;20471;-63
2021/07/06 02:26:59;;;;;;;7.97;7.00;;;;;;;16.86;71.74;95883.97;5133786;28;20022;-63
2021/07/06 02:29:24;;;;;;;8.65;7.63;;;;;;;16.86;71.58;95880.50;5133796;28;20019;-63
2021/07/06 02:31:50;;;;;;;9.30;7.10;;;;;;;16.82;71.59;95881.69;5133720;28;20024;-63
2021/07/06 02:34:15;;;;;;;8.98;7.15;;;;;;;16.83;71.64;95888.66;5133629;27;20111;-63
2021/07/06 02:36:41;;;;;;;7.55;6.80;;;;;;;16.76;71.96;95883.81;5136634;27;20030;-66
2021/07/06 02:39:06;;;;;;;7.68;6.97;;;;;;;16.79;72.21;95885.38;5137665;27;20023;-65
2021/07/06 02:41:32;;;;;;;9.43;8.15;;;;;;;16.80;72.02;95887.09;5137656;27;20062;-61
2021/07/06 02:43:58;;;;;;;10.50;7.10;;;;;;;16.80;72.16;95882.63;5137713;27;20102;-62
2021/07/06 02:46:23;;;;;;;9.50;7.82;;;;;;;16.87;72.82;95877.75;5137699;27;20471;-64
2021/07/06 02:48:49;;;;;;;8.52;7.40;;;;;;;16.82;72.45;95879.06;5137592;27;20037;-62
2021/07/06 02:51:17;;;;;;;13.95;7.07;;;;;;;16.89;73.14;95880.28;5137434;27;20404;-64
2021/07/06 02:53:42;;;;;;;9.35;6.65;;;;;;;16.94;72.97;95886.03;5137292;27;20023;-64
2021/07/06 02:56:08;;;;;;;7.63;6.60;;;;;;;16.85;72.97;95884.09;5137311;27;20033;-66
2021/07/06 02:58:33;;;;;;;10.93;7.10;;;;;;;16.89;73.13;95886.38;5137330;27;20034;-62
2021/07/06 03:00:59;;;;;;;7.47;6.10;;;;;;;16.92;73.08;95891.44;5137392;27;20019;-65
2021/07/06 03:03:24;;;;;;;14.27;7.55;;;;;;;16.93;73.41;95893.16;5137079;27;20043;-65
2021/07/06 03:05:50;;;;;;;12.68;7.53;;;;;;;16.99;73.62;95902.41;5137193;27;20031;-62
2021/07/06 03:08:16;;;;;;;8.30;7.03;;;;;;;17.03;73.71;95898.56;5137077;27;20023;-63
2021/07/06 03:10:41;;;;;;;11.50;6.57;;;;;;;17.04;73.76;95894.97;5137070;27;20392;-61
2021/07/06 03:13:09;;;;;;;11.55;7.70;;;;;;;17.12;73.82;95904.16;5137042;27;20104;-63
2021/07/06 03:15:35;;;;;;;9.25;6.95;;;;;;;17.15;73.27;95904.78;5136874;27;20027;-64
2021/07/06 03:18:02;;;;;;;14.48;7.30;;;;;;;17.19;73.68;95908.03;5136933;27;20499;-64
2021/07/06 03:20:28;;;;;;;10.15;6.88;;;;;;;17.30;74.10;95897.50;5136965;27;20471;-65
2021/07/06 03:22:54;;;;;;;8.52;7.63;;;;;;;17.38;73.61;95898.72;5136882;27;20023;-63
2021/07/06 03:25:23;;;;;;;14.50;7.53;;;;;;;17.45;72.87;95901.75;5136785;27;20019;-61
2021/07/06 03:27:49;;;;;;;11.35;7.50;;;;;;;17.53;73.04;95912.56;5136785;27;20020;-65
2021/07/06 03:30:17;;;;;;;8.63;7.13;;;;;;;17.57;73.30;95911.38;5136629;27;20030;-61
2021/07/06 03:32:43;;;;;;;8.32;6.18;;;;;;;17.63;72.70;95908.25;5136553;27;20019;-64
2021/07/06 03:35:09;;;;;;;9.60;6.55;;;;;;;17.68;72.99;95905.25;5136703;27;20392;-65
2021/07/06 03:37:36;;;;;;;9.90;7.00;;;;;;;17.83;71.86;95911.16;5136583;27;20177;-61
2021/07/06 03:40:06;;;;;;;10.35;7.10;;;;;;;17.96;72.11;95910.19;5136589;27;20023;-61
2021/07/06 03:42:32;;;;;;;7.70;6.90;;;;;;;18.05;72.87;95907.69;5136556;27;20353;-61
2021/07/06 03:44:58;;;;;;;8.20;6.63;;;;;;;18.09;71.97;95907.44;5136443;27;20026;-65
2021/07/06 03:47:23;;;;;;;8.18;6.72;;;;;;;18.17;70.30;95903.25;5136079;27;20035;-62
2021/07/06 03:49:49;;;;;;;7.32;6.63;;;;;;;18.27;71.05;95908.66;5136434;27;20083;-62
2021/07/06 03:52:14;;;;;;;12.70;7.70;;;;;;;18.38;71.21;95906.97;5136290;27;20042;-64
2021/07/06 03:54:40;;;;;;;9.60;6.38;;;;;;;18.43;71.30;95916.22;5136096;27;20529;-62
2021/07/06 03:57:06;;;;;;;9.68;6.55;;;;;;;18.60;72.19;95923.78;5136290;27;20027;-63
2021/07/06 03:59:31;;;;;;;6.50;5.90;;;;;;;18.69;69.45;95918.59;5136199;27;20054;-62
2021/07/06 04:01:57;;;;;;;8.55;5.28;;;;;;;18.84;67.56;95920.94;5136093;27;20058;-65
2021/07/06 04:04:23;;;;;;;9.07;6.88;;;;;;;19.03;66.17;95920.28;5114005;28;20055;-63
2021/07/06 04:06:50;;;;;;;8.80;5.95;;;;;;;19.21;65.91;95926.88;5115396;27;20024;-66
2021/07/06 04:09:16;;;;;;;7.38;5.72;;;;;;;19.38;67.75;95926.31;5115540;28;20047;-66
2021/07/06 04:11:42;;;;;;;8.68;5.93;;;;;;;19.50;66.53;95924.44;5115453;28;20054;-64
2021/07/06 04:14:09;;;;;;;8.18;5.50;;;;;;;19.63;68.07;95926.88;5115327;28;20568;-61
2021/07/06 04:16:35;;;;;;;6.53;5.65;;;;;;;19.75;68.92;95924.19;5115358;28;20047;-61
2021/07/06 04:19:02;;;;;;;10.00;6.63;;;;;;;19.83;69.76;95919.03;5115143;28;20051;-65
2021/07/06 04:21:28;;;;;;;8.07;6.07;;;;;;;19.92;70.61;95928.03;5115124;28;20023;-61
2021/07/06 04:23:53;;;;;;;6.50;5.90;;;;;;;20.05;70.69;95935.81;5115225;28;20489;-63
2021/07/06 04:26:19;;;;;;;7.55;6.45;;;;;;;20.12;69.96;95934.31;5115138;28;20042;-64
2021/07/06 04:28:45;;;;;;;7.07;6.38;;;;;;;20.22;69.92;95947.63;5115039;28;20019;-61
2021/07/06 04:31:11;;;;;;;6.85;5.63;;;;;;;20.35;68.56;95947.41;5114979;28;20027;-63
2021/07/06 04:33:36;;;;;;;7.57;6.50;;;;;;;20.49;66.10;95951.50;5114987;27;20487;-64
2021/07/06 04:36:02;;;;;;;7.90;6.18;;;;;;;20.63;65.91;95955.59;5114888;28;20098;-63
2021/07/06 04:38:28;;;;;;;7.25;5.65;;;;;;;20.88;65.88;95957.88;5114887;28;20024;-67
2021/07/06 04:40:55;;;;;;;10.85;6.15;;;;;;;21.20;67.00;95968.28;5114779;28;20028;-66
2021/07/06 04:43:21;;;;;;;5.93;5.28;;;;;;;21.59;65.18;95961.31;5114757;28;20389;-63
2021/07/06 04:45:47;;;;;;;6.00;5.40;;;;;;;22.05;65.29;95960.69;5114738;28;20086;-64
2021/07/06 04:48:12;;;;;;;9.32;5.43;;;;;;;22.52;62.40;95967.81;5114755;28;20028;-62
2021/07/06 04:50:39;;;;;;;9.65;5.70;;;;;;;22.93;58.52;95971.94;5114639;28;20165;-61
2021/07/06 04:53:08;;;;;;;9.25;5.43;;;;;;;23.29;61.85;95979.16;5114469;28;20369;-64
2021/07/06 04:55:35;;;;;;;7.57;5.00;;;;;;;23.60;61.10;95968.13;5114421;28;20020;-64
2021/07/06 04:58:03;;;;;;;5.28;4.78;;;;;;;23.96;59.53;95981.41;5113750;28;20027;-64
2021/07/06 05:00:28;;;;;;;5.32;4.80;;;;;;;24.39;59.45;95985.19;5114435;28;20027;-62
2021/07/06 05:02:54;;;;;;;7.07;4.78;;;;;;;24.85;56.31;95979.53;5114379;28;20153;-63
2021/07/06 05:05:20;;;;;;;7.07;4.63;;;;;;;25.28;55.49;95981.38;5134200;27;20070;-63
2021/07/06 05:07:46;;;;;;;5.65;4.47;;;;;;;25.82;55.12;95974.72;5134710;27;20052;-64
2021/07/06 05:10:12;;;;;;;7.60;4.10;;;;;;;26.15;50.29;95981.91;5134860;27;20026;-65
2021/07/06 05:12:39;;;;;;;5.10;3.83;;;;;;;26.47;48.69;95977.47;5134728;27;20083;-63
2021/07/06 05:15:06;;;;;;;7.35;3.72;;;;;;;26.82;49.80;95990.59;5134559;27;20027;-64
2021/07/06 05:17:32;;;;;;;7.45;3.92;;;;;;;27.20;48.43;95989.91;5134503;27;20492;-62
2021/07/06 05:19:57;;;;;;;5.65;3.83;;;;;;;27.54;48.75;95986.00;5134627;27;20048;-65
2021/07/06 05:22:23;;;;;;;7.13;4.22;;;;;;;27.81;46.65;95994.53;5134558;27;20024;-68
2021/07/06 05:24:49;;;;;;;5.53;3.85;;;;;;;28.20;46.21;96000.75;5134535;27;20442;-65
2021/07/06 05:27:16;;;;;;;4.60;3.83;;;;;;;28.61;46.11;96009.41;5134469;27;20019;-63
2021/07/06 05:29:42;;;;;;;7.85;3.90;;;;;;;28.87;42.75;96000.84;5134581;27;20023;-65
2021/07/06 05:32:08;;;;;;;4.95;3.67;;;;;;;29.26;42.98;96008.81;5134345;27;20027;-64
2021/07/06 05:34:33;;;;;;;6.65;3.63;;;;;;;29.67;42.98;96006.56;5134285;27;20072;-64
2021/07/06 05:36:59;;;;;;;7.97;3.88;;;;;;;30.01;40.81;96007.69;5134303;27;20019;-61
2021/07/06 05:39:25;;;;;;;5.05;3.30;;;;;;;29.85;41.20;96009.63;5134283;27;20020;-66
2021/07/06 05:41:51;;;;;;;6.40;3.72;;;;;;;29.61;42.63;96013.53;5134201;27;20096;-63
2021/07/06 05:44:17;;;;;;;5.93;3.83;;;;;;;29.13;41.68;96006.78;5134100;27;20430;-66
2021/07/06 05:46:43;;;;;;;5.03;3.58;;;;;;;28.54;41.55;96020.09;5134219;27;20469;-64
2021/07/06 05:49:08;;;;;;;4.72;3.63;;;;;;;27.86;40.94;96019.03;5134139;27;20015;-68
2021/07/06 05:51:34;;;;;;;3.65;3.00;;;;;;;27.31;43.19;96021.72;5134249;27;20433;-67
2021/07/06 05:54:00;;;;;;;3.63;3.28;;;;;;;26.84;43.76;96015.38;5134107;28;20027;-65
2021/07/06 05:56:25;;;;;;;9.85;3.63;;;;;;;26.45;43.94;96012.50;5134132;27;20354;-67
2021/07/06 05:58:51;;;;;;;4.13;3.53;;;;;;;26.19;45.33;96016.19;5134133;28;20099;-64
2021/07/06 06:01:17;;;;;;;6.88;3.63;;;;;;;26.03;45.79;96018.91;5134148;28;20042;-62
2021/07/06 06:03:43;;;;;;;5.32;3.88;;;;;;;25.79;46.22;96017.91;5133811;28;20477;-66
2021/07/06 06:06:09;;;;;;;7.82;3.67;;;;;;;25.50;46.46;96025.38;5133960;28;20023;-63
2021/07/06 06:08:36;;;;;;;6.47;3.55;;;;;;;25.36;47.01;96027.72;5134008;28;20020;-66
2021/07/06 06:11:06;;;;;;;5.93;3.72;;;;;;;25.18;48.12;96030.50;5137571;27;20362;-65
2021/07/06 06:13:31;;;;;;;4.20;3.80;;;;;;;25.08;48.60;96040.50;5138131;27;20034;-65
2021/07/06 06:15:57;;;;;;;6.03;3.67;;;;;;;25.00;48.45;96041.31;5138197;27;20035;-63
2021/07/06 06:18:23;;;;;;;4.38;3.60;;;;;;;24.92;49.09;96041.28;5138080;27;20043;-61
2021/07/06 06:20:48;;;;;;;3.60;3.28;;;;;;;24.78;48.61;96042.69;5138139;27;20478;-64
2021/07/06 06:23:14;;;;;;;6.88;3.80;;;;;;;24.71;48.00;96040.66;5138069;27;20026;-67
2021/07/06 06:25:39;;;;;;;5.60;3.53;;;;;;;24.64;48.71;96052.13;5137996;27;20114;-62
2021/07/06 06:28:06;;;;;;;3.95;3.65;;;;;;;24.55;49.00;96051.25;5138016;27;20023;-65
2021/07/06 06:30:31;;;;;;;5.18;3.72;;;;;;;24.38;49.11;96053.00;5137930;27;20019;-63
2021/07/06 06:32:57;;;;;;;4.57;3.97;;;;;;;24.42;50.15;96057.03;5137871;27;20071;-63
2021/07/06 06:35:23;;;;;;;4.57;3.75;;;;;;;24.47;50.18;96054.75;5137735;27;20051;-64
2021/07/06 06:37:49;;;;;;;5.00;3.85;;;;;;;24.47;49.39;96054.75;5137839;27;20098;-65
2021/07/06 06:40:14;;;;;;;7.40;3.50;;;;;;;24.42;49.68;96057.88;5137705;27;20023;-65
2021/07/06 06:42:41;;;;;;;5.05;3.75;;;;;;;24.38;49.41;96053.81;5137696;27;20019;-65
2021/07/06 06:45:09;;;;;;;7.00;3.70;;;;;;;24.38;49.74;96053.00;5137542;27;20020;-62
2021/07/06 06:47:36;;;;;;;4.35;3.38;;;;;;;24.34;50.10;96053.31;5137570;27;20098;-63
2021/07/06 06:50:03;;;;;;;4.18;3.78;;;;;;;24.41;50.60;96058.03;5137489;27;20048;-63
2021/07/06 06:52:28;;;;;;;7.35;3.78;;;;;;;24.31;49.76;96055.44;5137492;27;20109;-65
2021/07/06 06:54:54;;;;;;;4.20;3.80;;;;;;;24.31;50.88;96052.78;5137380;27;20102;-62
2021/07/06 06:57:21;;;;;;;5.88;3.90;;;;;;;24.28;51.24;96051.25;5137473;27;20392;-63
2021/07/06 06:59:51;;;;;;;5.72;3.88;;;;;;;24.38;51.59;96058.34;5137431;27;20023;-64
2021/07/06 07:02:18;;;;;;;4.70;3.80;;;;;;;24.40;50.18;96054.50;5137248;27;20080;-63
2021/07/06 07:04:52;;;;;;;9.65;4.13;;;;;;;24.52;51.11;96062.25;5136980;27;20138;-64
2021/07/06 07:07:20;;;;;;;4.22;3.10;;;;;;;24.56;51.57;96061.78;5137090;27;20354;-65
2021/07/06 07:09:46;;;;;;;5.63;4.25;;;;;;;24.57;50.70;96055.47;5137120;27;20422;-64
2021/07/06 07:12:13;;;;;;;4.15;3.60;;;;;;;24.46;50.91;96047.69;5137087;27;20026;-67
2021/07/06 07:14:41;;;;;;;5.88;3.63;;;;;;;24.60;51.09;96063.13;5136939;27;20035;-65
2021/07/06 07:17:07;;;;;;;4.70;4.00;;;;;;;24.70;52.14;96057.69;5136930;27;20483;-63
2021/07/06 07:19:33;;;;;;;6.63;4.03;;;;;;;24.81;51.51;96056.59;5136950;27;20027;-61
2021/07/06 07:21:59;;;;;;;4.20;3.80;;;;;;;24.95;50.95;96051.66;5136086;27;20380;-63
2021/07/06 07:24:24;;;;;;;3.92;3.58;;;;;;;24.98;50.99;96052.16;5136838;27;20106;-65
2021/07/06 07:26:50;;;;;;;8.63;4.47;;;;;;;25.20;51.54;96054.41;5136798;27;20019;-63
2021/07/06 07:29:16;;;;;;;8.07;4.13;;;;;;;25.36;53.32;96050.94;5136673;27;20077;-63
2021/07/06 07:31:42;;;;;;;8.73;3.83;;;;;;;25.51;51.26;96047.63;5136614;27;20073;-65
2021/07/06 07:34:08;;;;;;;6.80;3.88;;;;;;;25.61;51.43;96049.19;5136528;27;20019;-63
2021/07/06 07:36:34;;;;;;;7.85;3.83;;;;;;;25.77;50.47;96041.34;5136630;27;20030;-61
2021/07/06 07:39:00;;;;;;;4.13;3.17;;;;;;;25.75;52.85;96036.16;5136628;27;20023;-62
2021/07/06 07:41:26;;;;;;;3.85;2.90;;;;;;;25.70;49.81;96050.03;5136640;27;20201;-62
2021/07/06 07:43:55;;;;;;;7.20;3.00;;;;;;;25.90;49.89;96047.03;5136515;27;20027;-67
2021/07/06 07:46:22;;;;;;;4.35;3.08;;;;;;;26.04;48.23;96052.72;5136399;27;20019;-64
2021/07/06 07:48:48;;;;;;;3.30;2.70;;;;;;;26.20;49.97;96051.88;5136471;27;20035;-64
2021/07/06 07:51:14;;;;;;;7.22;2.92;;;;;;;26.28;47.95;96059.06;5136313;27;20033;-63
2021/07/06 07:53:40;;;;;;;6.85;3.22;;;;;;;26.47;48.32;96052.53;5136310;27;20023;-65
2021/07/06 07:56:06;;;;;;;5.53;3.03;;;;;;;26.87;48.65;96056.13;5136214;27;20023;-66
2021/07/06 07:58:31;;;;;;;6.10;2.67;;;;;;;27.34;46.79;96066.16;5117697;27;20027;-66
2021/07/06 08:00:57;;;;;;;3.28;2.97;;;;;;;27.85;45.52;96059.50;5136219;27;20049;-61
2021/07/06 08:03:23;;;;;;;5.55;2.65;;;;;;;28.39;44.97;96055.03;5135964;27;20039;-66
2021/07/06 08:05:49;;;;;;;4.15;2.20;;;;;;;29.01;42.82;96057.56;5136100;27;20027;-64
2021/07/06 08:08:15;;;;;;;3.55;2.63;;;;;;;29.51;43.07;96067.69;5135965;27;20015;-66
2021/07/06 08:10:41;;;;;;;3.17;2.53;;;;;;;29.79;41.98;96074.25;5135905;27;20480;-64
2021/07/06 08:13:09;;;;;;;3.47;2.28;;;;;;;29.87;41.43;96063.34;5135782;27;20022;-64
2021/07/06 08:15:35;;;;;;;8.90;2.70;;;;;;;30.08;40.37;96070.59;5135787;27;20030;-65
2021/07/06 08:18:01;;;;;;;3.60;2.50;;;;;;;29.96;41.49;96066.72;5135898;27;20094;-64
2021/07/06 08:20:27;;;;;;;3.35;2.67;;;;;;;29.61;41.50;96079.03;5135788;27;20015;-66
2021/07/06 08:22:56;;;;;;;3.83;2.63;;;;;;;29.39;42.03;96078.13;5135735;27;20026;-63
2021/07/06 08:25:23;;;;;;;3.08;2.78;;;;;;;29.04;41.66;96078.72;5135702;27;20393;-65
2021/07/06 08:27:49;;;;;;;3.65;2.53;;;;;;;28.71;43.24;96073.72;5135598;27;20080;-65
2021/07/06 08:30:15;;;;;;;4.95;2.63;;;;;;;28.66;45.15;96071.56;5135561;27;20019;-64
2021/07/06 08:32:41;;;;;;;4.13;2.80;;;;;;;28.47;44.01;96072.94;5134802;27;20025;-64
2021/07/06 08:35:07;;;;;;;3.45;2.67;;;;;;;28.09;44.11;96071.91;5135114;27;20114;-65
2021/07/06 08:37:32;;;;;;;5.68;3.10;;;;;;;28.01;45.06;96066.59;5135360;27;20039;-64
2021/07/06 08:39:59;;;;;;;4.00;3.22;;;;;;;27.83;45.85;96070.41;5135437;27;20023;-67
2021/07/06 08:42:26;;;;;;;7.47;2.88;;;;;;;27.85;45.48;96067.56;5135303;27;20031;-63
2021/07/06 08:44:52;;;;;;;3.15;2.85;;;;;;;27.76;44.67;96069.47;5135272;27;20065;-66
2021/07/06 08:47:18;;;;;;;4.13;2.80;;;;;;;27.64;44.79;96066.31;5135205;27;20460;-64
2021/07/06 08:49:47;;;;;;;3.15;2.45;;;;;;;27.74;44.48;96068.81;5135230;27;20477;-66
2021/07/06 08:52:15;;;;;;;2.65;2.42;;;;;;;27.67;44.72;96057.94;5135250;27;20023;-65
2021/07/06 08:54:41;;;;;;;3.55;2.25;;;;;;;27.49;46.61;96063.56;5135030;27;20027;-64
2021/07/06 08:57:07;;;;;;;7.22;3.00;;;;;;;27.42;45.01;96059.91;5134906;27;20026;-63
2021/07/06 08:59:40;;;;;;;6.13;2.78;;;;;;;27.59;45.04;96068.69;5135017;27;20054;-63
2021/07/06 09:02:11;;;;;;;4.15;2.60;;;;;;;27.50;46.35;96065.22;5134921;27;20023;-67
2021/07/06 09:04:50;;;;;;;3.70;2.50;;;;;;;27.70;44.63;96070.19;5134626;27;20547;-66
2021/07/06 09:07:16;;;;;;;4.20;2.65;;;;;;;27.66;46.03;96080.44;5134838;27;20035;-63
2021/07/06 09:09:42;;;;;;;3.38;2.33;;;;;;;27.72;47.09;96081.59;5134788;27;20029;-63
2021/07/06 09:12:11;;;;;;;2.90;2.38;;;;;;;27.59;44.94;96085.66;5134810;27;20023;-63
2021/07/06 09:14:44;;;;;;;3.65;2.72;;;;;;;27.67;47.23;96082.13;5134569;27;20058;-64
2021/07/06 09:17:23;;;;;;;4.40;3.10;;;;;;;27.45;44.86;96079.19;5134642;27;20098;-63
2021/07/06 09:19:51;;;;;;;3.03;2.72;;;;;;;27.55;47.44;96084.34;5134756;27;20019;-63
2021/07/06 09:22:17;;;;;;;3.92;2.75;;;;;;;27.51;45.23;96085.69;5134558;27;20031;-63
2021/07/06 09:24:45;;;;;;;4.38;2.63;;;;;;;27.38;44.96;96078.22;5134460;27;20392;-67
2021/07/06 09:27:24;;;;;;;5.35;2.78;;;;;;;27.15;45.31;96072.81;5134568;27;20042;-62
2021/07/06 09:30:19;;;;;;;6.35;3.35;;;;;;;27.01;45.34;96085.94;5116166;27;20072;-62
2021/07/06 09:32:51;;;;;;;7.57;3.22;;;;;;;26.90;46.52;96087.13;5134340;27;20060;-63
2021/07/06 09:35:24;;;;;;;3.60;3.03;;;;;;;26.71;47.18;96088.34;5116010;27;20031;-66
2021/07/06 09:37:51;;;;;;;4.40;2.78;;;;;;;26.63;46.49;96086.50;5134332;27;20031;-63
2021/07/06 09:40:31;;;;;;;4.03;2.97;;;;;;;26.82;48.75;96079.09;5134208;27;20152;-64
2021/07/06 09:43:21;;;;;;;3.25;2.60;;;;;;;27.38;46.10;96070.16;5134300;27;20087;-65
2021/07/06 09:45:56;;;;;;;3.13;2.83;;;;;;;27.98;45.34;96080.38;5133854;27;20027;-67
2021/07/06 09:48:23;;;;;;;3.50;2.50;;;;;;;28.54;45.10;96070.34;5134169;27;20043;-67
2021/07/06 09:50:49;;;;;;;3.80;2.72;;;;;;;28.45;43.07;96081.19;5134171;27;20448;-62
2021/07/06 09:53:31;;;;;;;6.43;3.03;;;;;;;28.14;43.68;96076.72;5133972;27;20047;-67
2021/07/06 09:55:57;;;;;;;7.07;2.97;;;;;;;28.05;46.30;96075.13;5113596;28;20441;-63
2021/07/06 09:58:24;;;;;;;2.67;2.25;;;;;;;28.15;43.03;96075.72;5095556;28;20036;-66
2021/07/06 10:00:51;;;;;;;3.97;2.78;;;;;;;28.37;46.14;96065.97;5113453;28;20025;-67
2021/07/06 10:03:20;;;;;;;4.32;2.15;;;;;;;28.47;43.45;96057.63;5113077;28;20400;-66
2021/07/06 10:05:48;;;;;;;;;;;;;;;28.54;44.65;96067.66;5113955;28;20043;-60
2021/07/06 10:08:14;;;;;;;2.60;2.40;;;;;;;28.72;44.59;96072.69;5113450;28;20269;-64
2021/07/06 10:10:40;;;;;;;4.07;2.80;;;;;;;29.01;43.16;96074.56;5113471;28;20467;-64
2021/07/06 10:13:05;;;;;;;2.47;2.28;;;;;;;29.29;42.24;96078.44;5113290;28;20077;-65
2021/07/06 10:15:32;;;;;;;3.17;2.55;;;;;;;29.55;42.17;96087.03;5113468;28;20578;-66
2021/07/06 10:17:58;;;;;;;4.00;2.53;;;;;;;29.47;40.59;96078.00;5113407;28;20035;-65
2021/07/06 10:20:27;;;;;;;2.78;2.30;;;;;;;29.34;40.72;96078.69;5113286;28;20437;-65
2021/07/06 10:22:55;;;;;;;6.88;2.30;;;;;;;29.42;41.43;96077.75;5113197;28;20499;-66
2021/07/06 10:25:33;;;;;;;4.90;2.80;;;;;;;29.51;41.39;96086.56;5113331;28;20074;-66
2021/07/06 10:28:03;;;;;;;5.25;2.80;;;;;;;29.45;41.00;96085.47;5113410;28;20034;-64
2021/07/06 10:30:42;;;;;;;9.30;2.55;;;;;;;29.36;42.19;96095.50;5113309;28;20028;-62
2021/07/06 10:33:14;;;;;;;2.45;2.25;;;;;;;28.94;40.79;96083.56;5113244;28;20024;-64
2021/07/06 10:35:43;;;;;;;3.92;2.55;;;;;;;28.91;43.28;96084.75;5113375;28;20032;-66
2021/07/06 10:38:27;;;;;;;4.18;2.60;;;;;;;29.10;39.61;96078.00;5113162;28;20023;-63
2021/07/06 10:41:07;;;;;;;3.13;2.33;;;;;;;29.33;40.47;96077.03;5113176;28;20051;-65
2021/07/06 10:43:51;;;;;;;2.67;2.28;;;;;;;29.64;40.08;96078.66;5113199;28;20032;-61
2021/07/06 10:46:20;;;;;;;5.85;2.25;;;;;;;29.68;42.33;96068.34;5094963;28;20028;-64
2021/07/06 10:49:00;;;;;;;5.90;2.28;;;;;;;29.73;40.46;96076.66;5113000;28;20024;-66
2021/07/06 10:51:35;;;;;;;2.97;2.70;;;;;;;30.01;42.65;96067.00;5113094;28;20380;-67
2021/07/06 10:54:15;;;;;;;2.58;2.38;;;;;;;30.28;42.66;96078.03;5112895;28;20032;-64
2021/07/06 10:56:47;;;;;;;5.05;2.53;;;;;;;30.33;38.00;96066.66;5114288;28;20043;-65
2021/07/06 10:59:31;;;;;;;4.80;2.33;;;;;;;30.27;38.73;96071.81;5116983;28;20321;-63
2021/07/06 11:02:02;;;;;;;3.20;2.22;;;;;;;30.38;38.85;96056.97;5116849;28;20020;-60
2021/07/06 11:04:45;;;;;;;3.63;2.20;;;;;;;30.52;39.26;96068.66;5116500;28;20040;-64
2021/07/06 11:07:15;;;;;;;5.93;2.50;;;;;;;30.50;38.76;96068.03;5116730;28;20050;-62
2021/07/06 11:09:41;;;;;;;6.07;2.60;;;;;;;30.57;38.99;96062.69;5116728;28;20095;-63
2021/07/06 11:12:37;;;;;;;4.50;2.35;;;;;;;30.69;39.13;96057.56;5116568;28;20051;-65
2021/07/06 11:15:19;;;;;;;5.18;2.40;;;;;;;30.49;38.74;96063.66;5116612;28;20027;-66
2021/07/06 11:17:45;;;;;;;3.83;2.75;;;;;;;30.44;38.68;96070.69;5116591;28;20107;-63
2021/07/06 11:20:17;;;;;;;3.67;2.22;;;;;;;30.36;38.55;96066.25;5116342;28;20533;-65
2021/07/06 11:22:48;;;;;;;5.10;2.53;;;;;;;30.48;38.31;96075.50;5116336;28;20084;-62
2021/07/06 11:25:27;;;;;;;4.30;2.22;;;;;;;30.48;37.36;96085.44;5116375;28;20023;-63
2021/07/06 11:28:05;;;;;;;3.60;2.42;;;;;;;30.58;38.65;96077.00;5116271;28;20031;-64
2021/07/06 11:30:35;;;;;;;6.05;2.20;;;;;;;30.68;39.25;96074.81;5116261;28;20032;-64
2021/07/06 11:33:04;;;;;;;6.63;2.53;;;;;;;30.74;37.38;96079.41;5116052;28;20118;-63